sensor_id;sensor_type;location;lat;lon;timestamp;pressure;altitude;pressure_sealevel;temperature;humidity
58092;BME280;43896;48.178;11.578;2023-05-13T00:01:06;95709.50;;;10.24;76.37
58092;BME280;43896;48.178;11.578;2023-05-13T00:03:32;95702.06;;;10.54;75.58
58092;BME280;43896;48.178;11.578;2023-05-13T00:05:59;95690.94;;;9.83;77.03
58092;BME280;43896;48.178;11.578;2023-05-13T00:08:25;95633.72;;;9.60;77.65
58092;BME280;43896;48.178;11.578;2023-05-13T00:10:51;95690.06;;;10.08;76.44
58092;BME280;43896;48.178;11.578;2023-05-13T00:13:16;95705.56;;;10.28;76.18
58092;BME280;43896;48.178;11.578;2023-05-13T00:15:44;95661.66;;;9.61;77.98
58092;BME280;43896;48.178;11.578;2023-05-13T00:18:09;95683.91;;;9.57;78.29
58092;BME280;43896;48.178;11.578;2023-05-13T00:20:35;95674.66;;;9.45;78.66
58092;BME280;43896;48.178;11.578;2023-05-13T00:23:00;95665.38;;;9.93;77.30
58092;BME280;43896;48.178;11.578;2023-05-13T00:25:29;95673.72;;;9.80;78.00
58092;BME280;43896;48.178;11.578;2023-05-13T00:27:55;95687.56;;;9.90;77.43
58092;BME280;43896;48.178;11.578;2023-05-13T00:30:20;95724.28;;;10.17;77.95
58092;BME280;43896;48.178;11.578;2023-05-13T00:32:45;95706.19;;;9.79;78.52
58092;BME280;43896;48.178;11.578;2023-05-13T00:35:11;95760.75;;;9.85;80.05
58092;BME280;43896;48.178;11.578;2023-05-13T00:37:38;95694.56;;;9.55;80.01
58092;BME280;43896;48.178;11.578;2023-05-13T00:40:04;95757.44;;;10.18;78.78
58092;BME280;43896;48.178;11.578;2023-05-13T00:42:30;95759.53;;;10.06;79.27
58092;BME280;43896;48.178;11.578;2023-05-13T00:44:55;95687.78;;;9.45;80.07
58092;BME280;43896;48.178;11.578;2023-05-13T00:47:21;95703.97;;;9.58;80.06
58092;BME280;43896;48.178;11.578;2023-05-13T00:49:46;95661.28;;;9.99;77.71
58092;BME280;43896;48.178;11.578;2023-05-13T00:52:12;95651.44;;;10.43;76.09
58092;BME280;43896;48.178;11.578;2023-05-13T00:54:40;95723.78;;;10.56;75.98
58092;BME280;43896;48.178;11.578;2023-05-13T00:57:08;95703.22;;;10.08;77.63
58092;BME280;43896;48.178;11.578;2023-05-13T00:59:36;95670.75;;;9.49;79.50
58092;BME280;43896;48.178;11.578;2023-05-13T01:02:13;95748.38;;;10.12;80.43
58092;BME280;43896;48.178;11.578;2023-05-13T01:04:51;95688.75;;;10.04;78.46
58092;BME280;43896;48.178;11.578;2023-05-13T01:07:29;95738.25;;;10.60;77.88
58092;BME280;43896;48.178;11.578;2023-05-13T01:10:18;95739.25;;;10.75;77.17
58092;BME280;43896;48.178;11.578;2023-05-13T01:12:48;95701.94;;;10.72;75.68
58092;BME280;43896;48.178;11.578;2023-05-13T01:15:21;95663.53;;;10.20;77.23
58092;BME280;43896;48.178;11.578;2023-05-13T01:17:56;95670.09;;;10.24;77.03
58092;BME280;43896;48.178;11.578;2023-05-13T01:20:26;95702.22;;;10.44;76.94
58092;BME280;43896;48.178;11.578;2023-05-13T01:22:51;95712.75;;;10.09;78.41
58092;BME280;43896;48.178;11.578;2023-05-13T01:25:17;95727.09;;;9.89;79.38
58092;BME280;43896;48.178;11.578;2023-05-13T01:27:42;95684.63;;;10.44;76.76
58092;BME280;43896;48.178;11.578;2023-05-13T01:30:09;95741.13;;;10.32;77.92
58092;BME280;43896;48.178;11.578;2023-05-13T01:32:35;95668.56;;;9.70;79.28
58092;BME280;43896;48.178;11.578;2023-05-13T01:35:01;95698.66;;;10.19;77.90
58092;BME280;43896;48.178;11.578;2023-05-13T01:37:30;95679.13;;;9.79;78.65
58092;BME280;43896;48.178;11.578;2023-05-13T01:39:55;95677.25;;;10.05;78.41
58092;BME280;43896;48.178;11.578;2023-05-13T01:42:25;95659.72;;;9.71;78.94
58092;BME280;43896;48.178;11.578;2023-05-13T01:44:51;95707.75;;;10.32;78.14
58092;BME280;43896;48.178;11.578;2023-05-13T01:47:16;95738.59;;;10.65;77.36
58092;BME280;43896;48.178;11.578;2023-05-13T01:49:41;95660.34;;;9.65;78.95
58092;BME280;43896;48.178;11.578;2023-05-13T01:52:07;95682.16;;;9.66;79.26
58092;BME280;43896;48.178;11.578;2023-05-13T01:54:34;95673.22;;;9.76;79.50
58092;BME280;43896;48.178;11.578;2023-05-13T01:57:00;95693.38;;;9.76;79.90
58092;BME280;43896;48.178;11.578;2023-05-13T01:59:25;95662.72;;;9.85;78.99
58092;BME280;43896;48.178;11.578;2023-05-13T02:01:51;95706.59;;;9.92;80.36
58092;BME280;43896;48.178;11.578;2023-05-13T02:04:16;95681.09;;;9.85;79.40
58092;BME280;43896;48.178;11.578;2023-05-13T02:06:42;95724.75;;;9.77;81.07
58092;BME280;43896;48.178;11.578;2023-05-13T02:09:07;95652.59;;;9.29;82.20
58092;BME280;43896;48.178;11.578;2023-05-13T02:11:33;95714.97;;;9.62;82.17
58092;BME280;43896;48.178;11.578;2023-05-13T02:13:59;95690.94;;;9.83;80.34
58092;BME280;43896;48.178;11.578;2023-05-13T02:16:30;95718.63;;;9.69;82.07
58092;BME280;43896;48.178;11.578;2023-05-13T02:18:58;95697.88;;;9.31;83.32
58092;BME280;43896;48.178;11.578;2023-05-13T02:21:23;95695.91;;;9.33;83.63
58092;BME280;43896;48.178;11.578;2023-05-13T02:23:49;95757.00;;;10.30;81.00
58092;BME280;43896;48.178;11.578;2023-05-13T02:26:14;95682.75;;;9.51;82.54
58092;BME280;43896;48.178;11.578;2023-05-13T02:28:40;95679.16;;;9.52;82.26
58092;BME280;43896;48.178;11.578;2023-05-13T02:31:05;95729.22;;;9.85;83.13
58092;BME280;43896;48.178;11.578;2023-05-13T02:33:31;95695.50;;;9.72;81.21
58092;BME280;43896;48.178;11.578;2023-05-13T02:35:56;95760.81;;;10.02;82.25
58092;BME280;43896;48.178;11.578;2023-05-13T02:38:21;95691.91;;;9.73;82.04
58092;BME280;43896;48.178;11.578;2023-05-13T02:40:49;95709.09;;;9.42;83.92
58092;BME280;43896;48.178;11.578;2023-05-13T02:43:15;95660.53;;;9.11;83.52
58092;BME280;43896;48.178;11.578;2023-05-13T02:45:40;95735.56;;;9.48;84.35
58092;BME280;43896;48.178;11.578;2023-05-13T02:48:08;95697.41;;;9.62;83.27
58092;BME280;43896;48.178;11.578;2023-05-13T02:50:35;95674.53;;;9.46;82.33
58092;BME280;43896;48.178;11.578;2023-05-13T02:53:00;95652.31;;;9.67;80.26
58092;BME280;43896;48.178;11.578;2023-05-13T02:55:26;95650.75;;;9.22;82.20
58092;BME280;43896;48.178;11.578;2023-05-13T02:57:51;95638.50;;;9.30;82.24
58092;BME280;43896;48.178;11.578;2023-05-13T03:00:20;95708.28;;;9.67;82.18
58092;BME280;43896;48.178;11.578;2023-05-13T03:02:45;95671.34;;;9.69;80.98
58092;BME280;43896;48.178;11.578;2023-05-13T03:05:11;95731.00;;;9.85;81.40
58092;BME280;43896;48.178;11.578;2023-05-13T03:07:43;95678.44;;;9.42;82.30
58092;BME280;43896;48.178;11.578;2023-05-13T03:10:16;95646.84;;;9.26;81.96
58092;BME280;43896;48.178;11.578;2023-05-13T03:12:44;95701.75;;;9.71;81.41
58092;BME280;43896;48.178;11.578;2023-05-13T03:15:14;95650.63;;;9.57;81.22
58092;BME280;43896;48.178;11.578;2023-05-13T03:17:40;95665.69;;;9.47;81.82
58092;BME280;43896;48.178;11.578;2023-05-13T03:20:09;95645.44;;;9.74;80.53
58092;BME280;43896;48.178;11.578;2023-05-13T03:22:36;95690.16;;;10.25;78.61
58092;BME280;43896;48.178;11.578;2023-05-13T03:25:07;95650.34;;;10.11;78.85
58092;BME280;43896;48.178;11.578;2023-05-13T03:27:32;95705.88;;;10.17;79.79
58092;BME280;43896;48.178;11.578;2023-05-13T03:29:57;95732.03;;;10.77;77.26
58092;BME280;43896;48.178;11.578;2023-05-13T03:32:23;95719.34;;;10.73;77.50
58092;BME280;43896;48.178;11.578;2023-05-13T03:34:57;95727.56;;;10.19;79.29
58092;BME280;43896;48.178;11.578;2023-05-13T03:37:23;95676.72;;;9.93;79.22
58092;BME280;43896;48.178;11.578;2023-05-13T03:39:49;95726.81;;;9.92;80.40
58092;BME280;43896;48.178;11.578;2023-05-13T03:42:18;95672.22;;;9.77;79.69
58092;BME280;43896;48.178;11.578;2023-05-13T03:44:44;95710.69;;;9.87;80.64
58092;BME280;43896;48.178;11.578;2023-05-13T03:47:12;95680.88;;;9.70;79.82
58092;BME280;43896;48.178;11.578;2023-05-13T03:49:37;95662.53;;;9.78;80.34
58092;BME280;43896;48.178;11.578;2023-05-13T03:52:05;95686.59;;;10.00;79.71
58092;BME280;43896;48.178;11.578;2023-05-13T03:54:36;95718.75;;;9.93;79.89
58092;BME280;43896;48.178;11.578;2023-05-13T03:57:03;95719.44;;;10.04;79.81
58092;BME280;43896;48.178;11.578;2023-05-13T03:59:29;95694.38;;;10.09;79.33
58092;BME280;43896;48.178;11.578;2023-05-13T04:01:54;95775.22;;;10.24;80.17
58092;BME280;43896;48.178;11.578;2023-05-13T04:04:20;95736.63;;;9.37;82.56
58092;BME280;43896;48.178;11.578;2023-05-13T04:06:45;95730.44;;;9.73;81.82
58092;BME280;43896;48.178;11.578;2023-05-13T04:09:11;95701.47;;;9.83;80.04
58092;BME280;43896;48.178;11.578;2023-05-13T04:11:37;95730.00;;;9.51;82.57
58092;BME280;43896;48.178;11.578;2023-05-13T04:14:03;95718.00;;;9.75;81.08
58092;BME280;43896;48.178;11.578;2023-05-13T04:16:28;95700.69;;;9.56;81.39
58092;BME280;43896;48.178;11.578;2023-05-13T04:18:54;95692.91;;;9.46;81.79
58092;BME280;43896;48.178;11.578;2023-05-13T04:21:19;95713.06;;;10.06;79.80
58092;BME280;43896;48.178;11.578;2023-05-13T04:23:45;95748.59;;;10.19;79.47
58092;BME280;43896;48.178;11.578;2023-05-13T04:26:10;95723.25;;;9.75;80.72
58092;BME280;43896;48.178;11.578;2023-05-13T04:28:38;95726.59;;;9.59;81.67
58092;BME280;43896;48.178;11.578;2023-05-13T04:31:03;95757.53;;;10.00;81.27
58092;BME280;43896;48.178;11.578;2023-05-13T04:33:29;95746.25;;;9.81;81.34
58092;BME280;43896;48.178;11.578;2023-05-13T04:35:54;95765.88;;;9.95;81.43
58092;BME280;43896;48.178;11.578;2023-05-13T04:38:20;95783.38;;;10.39;80.55
58092;BME280;43896;48.178;11.578;2023-05-13T04:40:45;95709.72;;;9.62;82.15
58092;BME280;43896;48.178;11.578;2023-05-13T04:43:12;95744.28;;;9.83;81.99
58092;BME280;43896;48.178;11.578;2023-05-13T04:45:38;95738.03;;;10.10;80.83
58092;BME280;43896;48.178;11.578;2023-05-13T04:48:03;95726.19;;;9.46;82.92
58092;BME280;43896;48.178;11.578;2023-05-13T04:50:29;95761.47;;;9.25;85.53
58092;BME280;43896;48.178;11.578;2023-05-13T04:52:56;95734.66;;;9.57;84.15
58092;BME280;43896;48.178;11.578;2023-05-13T04:55:21;95768.31;;;9.62;83.97
58092;BME280;43896;48.178;11.578;2023-05-13T04:57:46;95787.78;;;9.77;84.89
58092;BME280;43896;48.178;11.578;2023-05-13T05:00:17;95723.50;;;9.64;82.50
58092;BME280;43896;48.178;11.578;2023-05-13T05:02:42;95820.59;;;9.73;83.90
58092;BME280;43896;48.178;11.578;2023-05-13T05:05:08;95793.84;;;9.16;86.38
58092;BME280;43896;48.178;11.578;2023-05-13T05:07:33;95817.41;;;9.26;87.14
58092;BME280;43896;48.178;11.578;2023-05-13T05:09:59;95805.84;;;9.54;86.44
58092;BME280;43896;48.178;11.578;2023-05-13T05:12:24;95743.34;;;9.14;86.32
58092;BME280;43896;48.178;11.578;2023-05-13T05:14:53;95734.63;;;9.31;84.53
58092;BME280;43896;48.178;11.578;2023-05-13T05:17:18;95734.78;;;9.12;85.16
58092;BME280;43896;48.178;11.578;2023-05-13T05:19:47;95765.69;;;9.18;85.94
58092;BME280;43896;48.178;11.578;2023-05-13T05:22:19;95771.03;;;9.52;85.61
58092;BME280;43896;48.178;11.578;2023-05-13T05:24:45;95783.47;;;9.50;84.54
58092;BME280;43896;48.178;11.578;2023-05-13T05:27:15;95792.41;;;9.57;84.58
58092;BME280;43896;48.178;11.578;2023-05-13T05:29:41;95840.00;;;10.33;83.28
58092;BME280;43896;48.178;11.578;2023-05-13T05:32:06;95771.13;;;9.25;85.54
58092;BME280;43896;48.178;11.578;2023-05-13T05:34:34;95815.75;;;9.43;86.04
58092;BME280;43896;48.178;11.578;2023-05-13T05:37:00;95789.78;;;9.57;84.91
58092;BME280;43896;48.178;11.578;2023-05-13T05:39:25;95805.59;;;9.92;83.83
58092;BME280;43896;48.178;11.578;2023-05-13T05:41:50;95796.94;;;9.73;83.89
58092;BME280;43896;48.178;11.578;2023-05-13T05:44:16;95827.88;;;9.44;84.90
58092;BME280;43896;48.178;11.578;2023-05-13T05:46:44;95826.41;;;10.11;82.86
58092;BME280;43896;48.178;11.578;2023-05-13T05:49:10;95823.75;;;9.23;85.35
58092;BME280;43896;48.178;11.578;2023-05-13T05:51:38;95852.78;;;10.02;84.61
58092;BME280;43896;48.178;11.578;2023-05-13T05:54:03;95853.47;;;9.42;85.84
58092;BME280;43896;48.178;11.578;2023-05-13T05:56:28;95827.38;;;9.22;85.78
58092;BME280;43896;48.178;11.578;2023-05-13T05:58:54;95837.63;;;9.33;85.59
58092;BME280;43896;48.178;11.578;2023-05-13T06:01:19;95809.31;;;9.01;86.15
58092;BME280;43896;48.178;11.578;2023-05-13T06:03:44;95854.66;;;9.29;86.74
58092;BME280;43896;48.178;11.578;2023-05-13T06:06:10;95838.69;;;9.41;85.60
58092;BME280;43896;48.178;11.578;2023-05-13T06:08:35;95833.81;;;9.46;84.47
58092;BME280;43896;48.178;11.578;2023-05-13T06:11:00;95840.44;;;9.32;85.39
58092;BME280;43896;48.178;11.578;2023-05-13T06:13:26;95837.81;;;9.32;85.29
58092;BME280;43896;48.178;11.578;2023-05-13T06:15:51;95854.44;;;9.41;86.39
58092;BME280;43896;48.178;11.578;2023-05-13T06:18:17;95825.31;;;9.52;84.45
58092;BME280;43896;48.178;11.578;2023-05-13T06:20:42;95838.00;;;9.38;85.29
58092;BME280;43896;48.178;11.578;2023-05-13T06:23:08;95839.97;;;9.36;85.60
58092;BME280;43896;48.178;11.578;2023-05-13T06:25:33;95835.47;;;9.47;85.00
58092;BME280;43896;48.178;11.578;2023-05-13T06:27:59;95850.91;;;9.50;84.95
58092;BME280;43896;48.178;11.578;2023-05-13T06:30:24;95864.63;;;9.62;84.53
58092;BME280;43896;48.178;11.578;2023-05-13T06:32:49;95837.13;;;9.48;85.55
58092;BME280;43896;48.178;11.578;2023-05-13T06:35:15;95862.13;;;9.78;84.94
58092;BME280;43896;48.178;11.578;2023-05-13T06:37:40;95860.13;;;10.16;83.51
58092;BME280;43896;48.178;11.578;2023-05-13T06:40:06;95825.69;;;9.75;83.76
58092;BME280;43896;48.178;11.578;2023-05-13T06:42:32;95856.25;;;9.58;86.18
58092;BME280;43896;48.178;11.578;2023-05-13T06:44:57;95845.00;;;9.48;85.79
58092;BME280;43896;48.178;11.578;2023-05-13T06:47:22;95833.94;;;9.62;86.08
58092;BME280;43896;48.178;11.578;2023-05-13T06:49:48;95847.31;;;9.51;87.14
58092;BME280;43896;48.178;11.578;2023-05-13T06:52:13;95839.59;;;10.20;84.16
58092;BME280;43896;48.178;11.578;2023-05-13T06:54:38;95843.91;;;9.76;84.37
58092;BME280;43896;48.178;11.578;2023-05-13T06:57:04;95838.59;;;9.50;87.27
58092;BME280;43896;48.178;11.578;2023-05-13T06:59:31;95853.63;;;9.58;87.09
58092;BME280;43896;48.178;11.578;2023-05-13T07:01:56;95846.59;;;9.41;87.37
58092;BME280;43896;48.178;11.578;2023-05-13T07:04:22;95853.69;;;9.48;87.74
58092;BME280;43896;48.178;11.578;2023-05-13T07:06:47;95856.47;;;9.65;86.81
58092;BME280;43896;48.178;11.578;2023-05-13T07:09:13;95835.38;;;9.56;87.06
58092;BME280;43896;48.178;11.578;2023-05-13T07:11:39;95866.47;;;9.87;84.40
58092;BME280;43896;48.178;11.578;2023-05-13T07:14:04;95868.03;;;9.98;84.90
58092;BME280;43896;48.178;11.578;2023-05-13T07:16:30;95858.03;;;10.02;83.45
58092;BME280;43896;48.178;11.578;2023-05-13T07:18:55;95889.25;;;10.57;82.69
58092;BME280;43896;48.178;11.578;2023-05-13T07:21:20;95870.00;;;10.48;82.00
58092;BME280;43896;48.178;11.578;2023-05-13T07:23:46;95864.13;;;10.02;83.53
58092;BME280;43896;48.178;11.578;2023-05-13T07:26:11;95875.66;;;10.09;84.24
58092;BME280;43896;48.178;11.578;2023-05-13T07:28:36;95853.31;;;9.43;85.48
58092;BME280;43896;48.178;11.578;2023-05-13T07:31:05;95845.88;;;9.38;86.07
58092;BME280;43896;48.178;11.578;2023-05-13T07:33:31;95844.84;;;9.49;85.28
58092;BME280;43896;48.178;11.578;2023-05-13T07:35:56;95831.28;;;9.18;85.56
58092;BME280;43896;48.178;11.578;2023-05-13T07:38:22;95823.91;;;9.57;84.66
58092;BME280;43896;48.178;11.578;2023-05-13T07:40:47;95867.03;;;9.55;84.60
58092;BME280;43896;48.178;11.578;2023-05-13T07:43:13;95856.47;;;9.47;85.79
58092;BME280;43896;48.178;11.578;2023-05-13T07:45:38;95861.84;;;9.45;85.73
58092;BME280;43896;48.178;11.578;2023-05-13T07:48:04;95889.41;;;10.03;84.08
58092;BME280;43896;48.178;11.578;2023-05-13T07:50:30;95831.59;;;10.03;82.92
58092;BME280;43896;48.178;11.578;2023-05-13T07:52:56;95872.00;;;10.55;80.61
58092;BME280;43896;48.178;11.578;2023-05-13T07:55:21;95875.34;;;10.65;80.25
58092;BME280;43896;48.178;11.578;2023-05-13T07:57:47;95808.16;;;10.10;79.79
58092;BME280;43896;48.178;11.578;2023-05-13T08:00:15;95797.84;;;9.20;83.17
58092;BME280;43896;48.178;11.578;2023-05-13T08:02:42;95902.25;;;10.06;82.83
58092;BME280;43896;48.178;11.578;2023-05-13T08:05:08;95831.13;;;9.37;83.59
58092;BME280;43896;48.178;11.578;2023-05-13T08:07:33;95832.69;;;9.48;83.32
58092;BME280;43896;48.178;11.578;2023-05-13T08:09:59;95846.13;;;9.89;83.75
58092;BME280;43896;48.178;11.578;2023-05-13T08:12:24;95882.34;;;10.04;83.92
58092;BME280;43896;48.178;11.578;2023-05-13T08:14:49;95813.06;;;9.79;82.43
58092;BME280;43896;48.178;11.578;2023-05-13T08:17:15;95848.88;;;10.06;82.94
58092;BME280;43896;48.178;11.578;2023-05-13T08:19:42;95813.94;;;9.61;84.60
58092;BME280;43896;48.178;11.578;2023-05-13T08:22:07;95864.31;;;10.09;85.61
58092;BME280;43896;48.178;11.578;2023-05-13T08:24:33;95799.91;;;9.52;86.37
58092;BME280;43896;48.178;11.578;2023-05-13T08:26:58;95802.56;;;9.34;87.34
58092;BME280;43896;48.178;11.578;2023-05-13T08:29:23;95845.28;;;9.63;85.28
58092;BME280;43896;48.178;11.578;2023-05-13T08:31:49;95827.47;;;9.30;87.51
58092;BME280;43896;48.178;11.578;2023-05-13T08:34:20;95907.06;;;10.11;86.23
58092;BME280;43896;48.178;11.578;2023-05-13T08:36:45;95847.44;;;9.85;84.88
58092;BME280;43896;48.178;11.578;2023-05-13T08:39:11;95851.13;;;9.56;85.62
58092;BME280;43896;48.178;11.578;2023-05-13T08:41:38;95910.72;;;10.70;83.64
58092;BME280;43896;48.178;11.578;2023-05-13T08:44:04;95827.72;;;10.07;83.52
58092;BME280;43896;48.178;11.578;2023-05-13T08:46:32;95825.19;;;9.80;84.11
58092;BME280;43896;48.178;11.578;2023-05-13T08:48:59;95904.00;;;10.76;83.26
58092;BME280;43896;48.178;11.578;2023-05-13T08:51:25;95830.78;;;10.29;84.38
58092;BME280;43896;48.178;11.578;2023-05-13T08:53:52;95850.66;;;10.58;83.36
58092;BME280;43896;48.178;11.578;2023-05-13T08:56:19;95896.56;;;10.37;84.13
58092;BME280;43896;48.178;11.578;2023-05-13T08:58:46;95838.91;;;10.18;83.45
58092;BME280;43896;48.178;11.578;2023-05-13T09:01:12;95851.78;;;10.47;82.12
58092;BME280;43896;48.178;11.578;2023-05-13T09:04:01;95901.66;;;10.65;81.55
58092;BME280;43896;48.178;11.578;2023-05-13T09:06:28;95857.47;;;10.77;80.50
58092;BME280;43896;48.178;11.578;2023-05-13T09:08:54;95916.06;;;10.87;81.86
58092;BME280;43896;48.178;11.578;2023-05-13T09:11:20;95905.19;;;10.82;82.13
58092;BME280;43896;48.178;11.578;2023-05-13T09:13:55;95844.72;;;10.21;82.39
58092;BME280;43896;48.178;11.578;2023-05-13T09:16:22;95872.69;;;10.30;82.40
58092;BME280;43896;48.178;11.578;2023-05-13T09:18:49;95823.66;;;9.95;84.18
58092;BME280;43896;48.178;11.578;2023-05-13T09:21:21;95920.38;;;10.62;82.79
58092;BME280;43896;48.178;11.578;2023-05-13T09:23:47;95881.34;;;10.49;82.19
58092;BME280;43896;48.178;11.578;2023-05-13T09:26:26;95874.75;;;10.79;81.15
58092;BME280;43896;48.178;11.578;2023-05-13T09:29:25;95916.38;;;11.35;78.84
58092;BME280;43896;48.178;11.578;2023-05-13T09:31:57;95907.78;;;11.16;78.58
58092;BME280;43896;48.178;11.578;2023-05-13T09:34:33;95919.94;;;11.09;80.84
58092;BME280;43896;48.178;11.578;2023-05-13T09:37:00;95917.72;;;10.96;79.94
58092;BME280;43896;48.178;11.578;2023-05-13T09:39:26;95850.16;;;10.62;79.98
58092;BME280;43896;48.178;11.578;2023-05-13T09:41:52;95829.38;;;10.43;80.69
58092;BME280;43896;48.178;11.578;2023-05-13T09:44:21;95922.91;;;10.72;81.72
58092;BME280;43896;48.178;11.578;2023-05-13T09:46:46;95908.91;;;11.05;81.12
58092;BME280;43896;48.178;11.578;2023-05-13T09:49:13;95922.13;;;10.87;81.54
58092;BME280;43896;48.178;11.578;2023-05-13T09:51:41;95845.81;;;10.19;81.35
58092;BME280;43896;48.178;11.578;2023-05-13T09:54:07;95836.28;;;10.18;81.19
58092;BME280;43896;48.178;11.578;2023-05-13T09:56:34;95915.91;;;10.62;81.92
58092;BME280;43896;48.178;11.578;2023-05-13T09:59:00;95920.22;;;10.98;79.91
58092;BME280;43896;48.178;11.578;2023-05-13T10:01:27;95892.84;;;10.82;81.68
58092;BME280;43896;48.178;11.578;2023-05-13T10:03:56;95918.66;;;10.79;80.82
58092;BME280;43896;48.178;11.578;2023-05-13T10:06:27;95912.28;;;10.89;80.70
58092;BME280;43896;48.178;11.578;2023-05-13T10:08:56;95920.25;;;11.06;81.13
58092;BME280;43896;48.178;11.578;2023-05-13T10:11:23;95916.88;;;10.87;81.93
58092;BME280;43896;48.178;11.578;2023-05-13T10:13:51;95845.22;;;10.51;81.33
58092;BME280;43896;48.178;11.578;2023-05-13T10:16:19;95884.03;;;11.00;79.74
58092;BME280;43896;48.178;11.578;2023-05-13T10:18:46;95919.03;;;11.35;78.75
58092;BME280;43896;48.178;11.578;2023-05-13T10:21:12;95925.44;;;11.40;78.35
58092;BME280;43896;48.178;11.578;2023-05-13T10:23:38;95867.56;;;10.98;78.89
58092;BME280;43896;48.178;11.578;2023-05-13T10:26:05;95814.63;;;11.01;77.89
58092;BME280;43896;48.178;11.578;2023-05-13T10:28:32;95841.72;;;10.93;77.78
58092;BME280;43896;48.178;11.578;2023-05-13T10:31:01;95871.94;;;11.32;77.37
58092;BME280;43896;48.178;11.578;2023-05-13T10:33:27;95853.69;;;11.30;77.99
58092;BME280;43896;48.178;11.578;2023-05-13T10:36:15;95843.28;;;11.20;77.67
58092;BME280;43896;48.178;11.578;2023-05-13T10:44:19;95809.25;;;11.60;73.82
58092;BME280;43896;48.178;11.578;2023-05-13T10:46:46;95837.41;;;11.51;75.79
58092;BME280;43896;48.178;11.578;2023-05-13T10:49:15;95873.63;;;12.23;73.70
58092;BME280;43896;48.178;11.578;2023-05-13T10:51:47;95830.97;;;11.62;73.16
58092;BME280;43896;48.178;11.578;2023-05-13T10:54:22;95834.44;;;11.87;73.59
58092;BME280;43896;48.178;11.578;2023-05-13T10:56:55;95880.41;;;11.93;73.93
58092;BME280;43896;48.178;11.578;2023-05-13T10:59:21;95858.31;;;11.36;74.85
58092;BME280;43896;48.178;11.578;2023-05-13T11:01:48;95836.31;;;10.86;76.95
58092;BME280;43896;48.178;11.578;2023-05-13T11:04:15;95925.97;;;11.52;77.88
58092;BME280;43896;48.178;11.578;2023-05-13T11:06:43;95904.22;;;11.58;76.50
58092;BME280;43896;48.178;11.578;2023-05-13T11:11:57;95917.88;;;11.37;76.37
58092;BME280;43896;48.178;11.578;2023-05-13T11:14:24;95923.06;;;11.96;75.00
58092;BME280;43896;48.178;11.578;2023-05-13T11:19:28;95908.34;;;11.53;75.52
58092;BME280;43896;48.178;11.578;2023-05-13T11:21:55;95927.31;;;11.64;76.41
58092;BME280;43896;48.178;11.578;2023-05-13T11:24:22;95906.28;;;11.97;75.83
58092;BME280;43896;48.178;11.578;2023-05-13T11:29:13;95907.50;;;11.44;75.46
58092;BME280;43896;48.178;11.578;2023-05-13T11:31:45;95919.72;;;11.45;75.63
58092;BME280;43896;48.178;11.578;2023-05-13T11:34:18;95919.41;;;11.73;75.86
58092;BME280;43896;48.178;11.578;2023-05-13T11:36:45;95930.31;;;12.03;76.37
58092;BME280;43896;48.178;11.578;2023-05-13T11:39:19;95924.69;;;11.73;75.43
58092;BME280;43896;48.178;11.578;2023-05-13T11:41:47;95933.22;;;11.67;75.98
58092;BME280;43896;48.178;11.578;2023-05-13T11:44:14;95919.22;;;11.58;75.54
58092;BME280;43896;48.178;11.578;2023-05-13T11:46:53;95944.38;;;11.44;75.19
58092;BME280;43896;48.178;11.578;2023-05-13T11:49:42;95914.47;;;11.78;73.45
58092;BME280;43896;48.178;11.578;2023-05-13T11:52:12;95937.91;;;12.14;72.92
58092;BME280;43896;48.178;11.578;2023-05-13T11:54:54;95922.06;;;11.81;74.76
58092;BME280;43896;48.178;11.578;2023-05-13T11:59:55;95930.44;;;11.68;74.32
58092;BME280;43896;48.178;11.578;2023-05-13T12:02:28;95924.69;;;11.81;74.43
58092;BME280;43896;48.178;11.578;2023-05-13T12:04:58;95885.50;;;11.70;73.16
58092;BME280;43896;48.178;11.578;2023-05-13T12:07:24;95923.88;;;12.13;72.50
58092;BME280;43896;48.178;11.578;2023-05-13T12:09:51;95855.31;;;12.30;70.38
58092;BME280;43896;48.178;11.578;2023-05-13T12:12:21;95940.13;;;12.83;69.49
58092;BME280;43896;48.178;11.578;2023-05-13T12:14:46;95933.88;;;12.67;71.18
58092;BME280;43896;48.178;11.578;2023-05-13T12:17:15;95922.06;;;12.38;71.07
58092;BME280;43896;48.178;11.578;2023-05-13T12:20:20;95884.34;;;12.13;71.90
58092;BME280;43896;48.178;11.578;2023-05-13T12:25:47;95897.03;;;12.18;72.55
58092;BME280;43896;48.178;11.578;2023-05-13T12:28:25;95932.44;;;12.48;72.55
58092;BME280;43896;48.178;11.578;2023-05-13T12:33:25;95935.88;;;12.57;72.49
58092;BME280;43896;48.178;11.578;2023-05-13T12:35:52;95936.44;;;13.00;71.24
58092;BME280;43896;48.178;11.578;2023-05-13T12:38:20;95854.94;;;12.41;71.00
58092;BME280;43896;48.178;11.578;2023-05-13T12:40:47;95882.81;;;12.44;71.95
58092;BME280;43896;48.178;11.578;2023-05-13T12:43:14;95866.25;;;12.66;70.57
58092;BME280;43896;48.178;11.578;2023-05-13T12:45:41;95880.66;;;12.47;72.44
58092;BME280;43896;48.178;11.578;2023-05-13T12:48:07;95872.59;;;12.41;72.62
58092;BME280;43896;48.178;11.578;2023-05-13T12:50:32;95909.44;;;12.73;72.25
58092;BME280;43896;48.178;11.578;2023-05-13T12:52:58;95913.81;;;12.42;72.60
58092;BME280;43896;48.178;11.578;2023-05-13T12:55:24;95917.94;;;12.44;72.33
58092;BME280;43896;48.178;11.578;2023-05-13T12:57:55;95873.63;;;12.15;72.83
58092;BME280;43896;48.178;11.578;2023-05-13T13:00:21;95923.72;;;12.31;71.96
58092;BME280;43896;48.178;11.578;2023-05-13T13:02:47;95912.84;;;12.34;71.57
58092;BME280;43896;48.178;11.578;2023-05-13T13:05:12;95906.88;;;12.57;72.87
58092;BME280;43896;48.178;11.578;2023-05-13T13:07:38;95870.88;;;12.72;70.31
58092;BME280;43896;48.178;11.578;2023-05-13T13:10:06;95903.16;;;13.22;70.57
58092;BME280;43896;48.178;11.578;2023-05-13T13:12:32;95890.63;;;12.85;69.48
58092;BME280;43896;48.178;11.578;2023-05-13T13:14:57;95938.97;;;13.17;69.85
58092;BME280;43896;48.178;11.578;2023-05-13T13:17:23;95881.06;;;12.75;69.47